sensor_id;sensor_type;location;lat;lon;timestamp;P1;durP1;ratioP1;P2;durP2;ratioP2
22774;SDS011;11554;51.106;3.684;2024-02-21T00:00:00;9.60;;;3.50;;
22774;SDS011;11554;51.106;3.684;2024-02-21T00:05:00;9.50;;;3.00;;
22774;SDS011;11554;51.106;3.684;2024-02-21T00:10:00;9.50;;;3.00;;
22774;SDS011;11554;51.106;3.684;2024-02-21T00:15:00;7.80;;;3.60;;
22774;SDS011;11554;51.106;3.684;2024-02-21T00:20:00;7.80;;;3.60;;
22774;SDS011;11554;51.106;3.684;2024-02-21T00:25:00;8.20;;;3.80;;
22774;SDS011;11554;51.106;3.684;2024-02-21T00:30:00;8.20;;;3.80;;
22774;SDS011;11554;51.106;3.684;2024-02-21T00:35:00;10.90;;;3.40;;
22774;SDS011;11554;51.106;3.684;2024-02-21T00:40:00;10.90;;;3.40;;
22774;SDS011;11554;51.106;3.684;2024-02-21T00:45:00;9.60;;;3.20;;
22774;SDS011;11554;51.106;3.684;2024-02-21T00:50:00;9.60;;;3.20;;
22774;SDS011;11554;51.106;3.684;2024-02-21T00:55:00;8.80;;;3.30;;
22774;SDS011;11554;51.106;3.684;2024-02-21T01:00:00;8.80;;;3.30;;
22774;SDS011;11554;51.106;3.684;2024-02-21T01:05:01;7.10;;;3.40;;
22774;SDS011;11554;51.106;3.684;2024-02-21T01:10:00;7.10;;;3.40;;
22774;SDS011;11554;51.106;3.684;2024-02-21T01:15:00;7.40;;;3.20;;
22774;SDS011;11554;51.106;3.684;2024-02-21T01:20:00;7.40;;;3.20;;
22774;SDS011;11554;51.106;3.684;2024-02-21T01:25:01;6.70;;;4.30;;
22774;SDS011;11554;51.106;3.684;2024-02-21T01:30:00;6.70;;;4.30;;
22774;SDS011;11554;51.106;3.684;2024-02-21T01:35:00;13.10;;;5.80;;
22774;SDS011;11554;51.106;3.684;2024-02-21T01:40:00;13.10;;;5.80;;
22774;SDS011;11554;51.106;3.684;2024-02-21T01:45:00;14.20;;;6.50;;
22774;SDS011;11554;51.106;3.684;2024-02-21T01:50:00;14.20;;;6.50;;
22774;SDS011;11554;51.106;3.684;2024-02-21T01:55:00;15.90;;;6.80;;
22774;SDS011;11554;51.106;3.684;2024-02-21T02:00:00;15.90;;;6.80;;
22774;SDS011;11554;51.106;3.684;2024-02-21T02:05:01;17.50;;;8.20;;
22774;SDS011;11554;51.106;3.684;2024-02-21T02:10:00;17.50;;;8.20;;
22774;SDS011;11554;51.106;3.684;2024-02-21T02:15:01;19.50;;;7.40;;
22774;SDS011;11554;51.106;3.684;2024-02-21T02:20:00;19.50;;;7.40;;
22774;SDS011;11554;51.106;3.684;2024-02-21T02:25:01;18.40;;;6.60;;
22774;SDS011;11554;51.106;3.684;2024-02-21T02:30:00;18.40;;;6.60;;
22774;SDS011;11554;51.106;3.684;2024-02-21T02:35:00;16.10;;;5.80;;
22774;SDS011;11554;51.106;3.684;2024-02-21T02:40:00;16.10;;;5.80;;
22774;SDS011;11554;51.106;3.684;2024-02-21T02:45:00;19.50;;;7.50;;
22774;SDS011;11554;51.106;3.684;2024-02-21T02:50:01;19.50;;;7.50;;
22774;SDS011;11554;51.106;3.684;2024-02-21T02:55:00;18.50;;;6.80;;
22774;SDS011;11554;51.106;3.684;2024-02-21T03:00:00;18.50;;;6.80;;
22774;SDS011;11554;51.106;3.684;2024-02-21T03:05:00;19.30;;;7.00;;
22774;SDS011;11554;51.106;3.684;2024-02-21T03:10:00;19.30;;;7.00;;
22774;SDS011;11554;51.106;3.684;2024-02-21T03:15:00;20.30;;;6.40;;
22774;SDS011;11554;51.106;3.684;2024-02-21T03:20:00;20.30;;;6.40;;
22774;SDS011;11554;51.106;3.684;2024-02-21T03:25:00;16.50;;;6.20;;
22774;SDS011;11554;51.106;3.684;2024-02-21T03:30:00;16.50;;;6.20;;
22774;SDS011;11554;51.106;3.684;2024-02-21T03:35:00;20.40;;;6.70;;
22774;SDS011;11554;51.106;3.684;2024-02-21T03:40:00;20.40;;;6.70;;
22774;SDS011;11554;51.106;3.684;2024-02-21T03:45:00;19.60;;;6.60;;
22774;SDS011;11554;51.106;3.684;2024-02-21T03:50:00;19.60;;;6.60;;
22774;SDS011;11554;51.106;3.684;2024-02-21T03:55:00;19.30;;;7.00;;
22774;SDS011;11554;51.106;3.684;2024-02-21T04:00:00;19.30;;;7.00;;
22774;SDS011;11554;51.106;3.684;2024-02-21T04:05:00;21.90;;;7.10;;
22774;SDS011;11554;51.106;3.684;2024-02-21T04:10:00;21.90;;;7.10;;
22774;SDS011;11554;51.106;3.684;2024-02-21T04:15:00;23.10;;;7.60;;
22774;SDS011;11554;51.106;3.684;2024-02-21T04:20:03;23.10;;;7.60;;
22774;SDS011;11554;51.106;3.684;2024-02-21T04:25:00;19.80;;;7.60;;
22774;SDS011;11554;51.106;3.684;2024-02-21T04:30:00;19.80;;;7.60;;
22774;SDS011;11554;51.106;3.684;2024-02-21T04:35:00;20.40;;;7.80;;
22774;SDS011;11554;51.106;3.684;2024-02-21T04:40:00;20.40;;;7.80;;
22774;SDS011;11554;51.106;3.684;2024-02-21T04:45:00;17.10;;;7.90;;
22774;SDS011;11554;51.106;3.684;2024-02-21T04:50:00;17.10;;;7.90;;
22774;SDS011;11554;51.106;3.684;2024-02-21T04:55:00;20.30;;;8.30;;
22774;SDS011;11554;51.106;3.684;2024-02-21T05:00:00;20.30;;;8.30;;
22774;SDS011;11554;51.106;3.684;2024-02-21T05:05:00;18.50;;;8.50;;
22774;SDS011;11554;51.106;3.684;2024-02-21T05:10:00;18.50;;;8.50;;
22774;SDS011;11554;51.106;3.684;2024-02-21T05:15:00;18.00;;;8.70;;
22774;SDS011;11554;51.106;3.684;2024-02-21T05:20:00;18.00;;;8.70;;
22774;SDS011;11554;51.106;3.684;2024-02-21T05:25:00;18.60;;;8.50;;
22774;SDS011;11554;51.106;3.684;2024-02-21T05:30:00;18.60;;;8.50;;
22774;SDS011;11554;51.106;3.684;2024-02-21T05:35:00;16.10;;;8.70;;
22774;SDS011;11554;51.106;3.684;2024-02-21T05:40:00;16.10;;;8.70;;
22774;SDS011;11554;51.106;3.684;2024-02-21T05:45:00;20.00;;;9.80;;
22774;SDS011;11554;51.106;3.684;2024-02-21T05:50:00;20.00;;;9.80;;
22774;SDS011;11554;51.106;3.684;2024-02-21T05:55:00;20.10;;;9.50;;
22774;SDS011;11554;51.106;3.684;2024-02-21T06:00:03;20.10;;;9.50;;
22774;SDS011;11554;51.106;3.684;2024-02-21T06:05:00;19.50;;;9.30;;
22774;SDS011;11554;51.106;3.684;2024-02-21T06:10:01;19.50;;;9.30;;
22774;SDS011;11554;51.106;3.684;2024-02-21T06:15:00;17.30;;;9.50;;
22774;SDS011;11554;51.106;3.684;2024-02-21T06:20:00;17.30;;;9.50;;
22774;SDS011;11554;51.106;3.684;2024-02-21T06:25:00;18.50;;;9.10;;
22774;SDS011;11554;51.106;3.684;2024-02-21T06:30:00;18.50;;;9.10;;
22774;SDS011;11554;51.106;3.684;2024-02-21T06:35:00;15.60;;;9.00;;
22774;SDS011;11554;51.106;3.684;2024-02-21T06:40:00;15.60;;;9.00;;
22774;SDS011;11554;51.106;3.684;2024-02-21T06:45:00;15.70;;;9.60;;
22774;SDS011;11554;51.106;3.684;2024-02-21T06:50:00;15.70;;;9.60;;
22774;SDS011;11554;51.106;3.684;2024-02-21T06:55:00;17.20;;;8.60;;
22774;SDS011;11554;51.106;3.684;2024-02-21T07:05:00;17.50;;;9.70;;
22774;SDS011;11554;51.106;3.684;2024-02-21T07:10:00;17.50;;;9.70;;
22774;SDS011;11554;51.106;3.684;2024-02-21T07:15:00;16.40;;;10.50;;
22774;SDS011;11554;51.106;3.684;2024-02-21T07:20:00;16.40;;;10.50;;
22774;SDS011;11554;51.106;3.684;2024-02-21T07:25:00;16.20;;;9.90;;
22774;SDS011;11554;51.106;3.684;2024-02-21T07:30:00;16.20;;;9.90;;
22774;SDS011;11554;51.106;3.684;2024-02-21T07:35:00;19.50;;;11.40;;
22774;SDS011;11554;51.106;3.684;2024-02-21T07:40:00;19.50;;;11.40;;
22774;SDS011;11554;51.106;3.684;2024-02-21T07:45:00;16.90;;;10.40;;
22774;SDS011;11554;51.106;3.684;2024-02-21T07:50:00;16.90;;;10.40;;
22774;SDS011;11554;51.106;3.684;2024-02-21T07:55:00;15.50;;;10.40;;
22774;SDS011;11554;51.106;3.684;2024-02-21T08:00:00;15.50;;;10.40;;
22774;SDS011;11554;51.106;3.684;2024-02-21T08:05:00;20.20;;;10.40;;
22774;SDS011;11554;51.106;3.684;2024-02-21T08:10:00;20.20;;;10.40;;
22774;SDS011;11554;51.106;3.684;2024-02-21T08:15:00;16.40;;;10.90;;
22774;SDS011;11554;51.106;3.684;2024-02-21T08:20:00;16.40;;;10.90;;
22774;SDS011;11554;51.106;3.684;2024-02-21T08:25:00;21.40;;;11.30;;
22774;SDS011;11554;51.106;3.684;2024-02-21T08:30:00;21.40;;;11.30;;
22774;SDS011;11554;51.106;3.684;2024-02-21T08:35:00;13.30;;;8.80;;
22774;SDS011;11554;51.106;3.684;2024-02-21T08:40:00;13.30;;;8.80;;
22774;SDS011;11554;51.106;3.684;2024-02-21T08:45:00;17.80;;;9.90;;
22774;SDS011;11554;51.106;3.684;2024-02-21T08:50:01;17.80;;;9.90;;
22774;SDS011;11554;51.106;3.684;2024-02-21T08:55:00;17.50;;;10.40;;
22774;SDS011;11554;51.106;3.684;2024-02-21T09:00:00;17.50;;;10.40;;
22774;SDS011;11554;51.106;3.684;2024-02-21T09:05:00;20.50;;;12.50;;
22774;SDS011;11554;51.106;3.684;2024-02-21T09:10:00;20.50;;;12.50;;
22774;SDS011;11554;51.106;3.684;2024-02-21T09:15:00;22.20;;;11.50;;
22774;SDS011;11554;51.106;3.684;2024-02-21T09:20:00;22.20;;;11.50;;
22774;SDS011;11554;51.106;3.684;2024-02-21T09:25:00;20.20;;;11.40;;
22774;SDS011;11554;51.106;3.684;2024-02-21T09:30:00;20.20;;;11.40;;
22774;SDS011;11554;51.106;3.684;2024-02-21T09:35:00;21.00;;;11.80;;
22774;SDS011;11554;51.106;3.684;2024-02-21T09:40:00;21.00;;;11.80;;
22774;SDS011;11554;51.106;3.684;2024-02-21T09:45:02;20.00;;;10.80;;
22774;SDS011;11554;51.106;3.684;2024-02-21T09:50:01;20.00;;;10.80;;
22774;SDS011;11554;51.106;3.684;2024-02-21T09:55:01;16.60;;;10.70;;
22774;SDS011;11554;51.106;3.684;2024-02-21T10:00:00;16.60;;;10.70;;
22774;SDS011;11554;51.106;3.684;2024-02-21T10:05:00;17.10;;;9.80;;
22774;SDS011;11554;51.106;3.684;2024-02-21T10:10:00;17.10;;;9.80;;
22774;SDS011;11554;51.106;3.684;2024-02-21T10:15:00;14.90;;;8.50;;
22774;SDS011;11554;51.106;3.684;2024-02-21T10:20:09;14.90;;;8.50;;
22774;SDS011;11554;51.106;3.684;2024-02-21T10:25:06;14.00;;;8.30;;
22774;SDS011;11554;51.106;3.684;2024-02-21T10:30:00;14.00;;;8.30;;
22774;SDS011;11554;51.106;3.684;2024-02-21T10:35:01;13.00;;;7.10;;
22774;SDS011;11554;51.106;3.684;2024-02-21T10:40:00;13.00;;;7.10;;
22774;SDS011;11554;51.106;3.684;2024-02-21T10:45:01;13.10;;;6.80;;
22774;SDS011;11554;51.106;3.684;2024-02-21T10:50:03;13.10;;;6.80;;
22774;SDS011;11554;51.106;3.684;2024-02-21T10:55:03;12.40;;;6.80;;
22774;SDS011;11554;51.106;3.684;2024-02-21T11:00:01;12.40;;;6.80;;
22774;SDS011;11554;51.106;3.684;2024-02-21T11:05:03;11.40;;;7.80;;
22774;SDS011;11554;51.106;3.684;2024-02-21T11:10:00;11.40;;;7.80;;
22774;SDS011;11554;51.106;3.684;2024-02-21T11:15:04;16.70;;;8.30;;
22774;SDS011;11554;51.106;3.684;2024-02-21T11:20:10;12.30;;;6.50;;
22774;SDS011;11554;51.106;3.684;2024-02-21T11:25:06;12.30;;;6.50;;
22774;SDS011;11554;51.106;3.684;2024-02-21T11:30:04;12.30;;;6.50;;
22774;SDS011;11554;51.106;3.684;2024-02-21T11:35:02;10.40;;;5.20;;
22774;SDS011;11554;51.106;3.684;2024-02-21T11:40:00;10.40;;;5.20;;
22774;SDS011;11554;51.106;3.684;2024-02-21T11:45:00;10.30;;;6.40;;
22774;SDS011;11554;51.106;3.684;2024-02-21T11:50:00;10.30;;;6.40;;
22774;SDS011;11554;51.106;3.684;2024-02-21T11:55:00;9.00;;;5.70;;
22774;SDS011;11554;51.106;3.684;2024-02-21T12:00:10;9.90;;;5.70;;
22774;SDS011;11554;51.106;3.684;2024-02-21T12:05:00;9.90;;;5.70;;
22774;SDS011;11554;51.106;3.684;2024-02-21T12:10:00;9.90;;;5.70;;
22774;SDS011;11554;51.106;3.684;2024-02-21T12:15:01;11.20;;;5.60;;
22774;SDS011;11554;51.106;3.684;2024-02-21T12:20:01;11.20;;;5.60;;
22774;SDS011;11554;51.106;3.684;2024-02-21T12:25:02;9.90;;;6.10;;
22774;SDS011;11554;51.106;3.684;2024-02-21T12:30:00;9.90;;;6.10;;
22774;SDS011;11554;51.106;3.684;2024-02-21T12:35:00;10.30;;;5.60;;
22774;SDS011;11554;51.106;3.684;2024-02-21T12:40:00;10.30;;;5.60;;
22774;SDS011;11554;51.106;3.684;2024-02-21T12:45:02;10.20;;;5.30;;
22774;SDS011;11554;51.106;3.684;2024-02-21T12:50:00;10.20;;;5.30;;
22774;SDS011;11554;51.106;3.684;2024-02-21T12:55:00;7.80;;;6.00;;
22774;SDS011;11554;51.106;3.684;2024-02-21T13:00:00;7.80;;;6.00;;
22774;SDS011;11554;51.106;3.684;2024-02-21T13:05:00;17.00;;;11.10;;
22774;SDS011;11554;51.106;3.684;2024-02-21T13:10:00;17.00;;;11.10;;
22774;SDS011;11554;51.106;3.684;2024-02-21T13:15:00;9.00;;;5.20;;
22774;SDS011;11554;51.106;3.684;2024-02-21T13:20:00;9.00;;;5.20;;
22774;SDS011;11554;51.106;3.684;2024-02-21T13:25:00;7.40;;;4.80;;
22774;SDS011;11554;51.106;3.684;2024-02-21T13:30:00;7.40;;;4.80;;
22774;SDS011;11554;51.106;3.684;2024-02-21T13:35:00;9.80;;;4.70;;
22774;SDS011;11554;51.106;3.684;2024-02-21T13:40:00;9.80;;;6.60;;
22774;SDS011;11554;51.106;3.684;2024-02-21T13:45:00;9.80;;;6.60;;
22774;SDS011;11554;51.106;3.684;2024-02-21T13:50:00;10.80;;;6.60;;
22774;SDS011;11554;51.106;3.684;2024-02-21T13:55:00;10.80;;;6.60;;
22774;SDS011;11554;51.106;3.684;2024-02-21T14:00:00;10.70;;;6.20;;
22774;SDS011;11554;51.106;3.684;2024-02-21T14:05:00;10.70;;;6.20;;
22774;SDS011;11554;51.106;3.684;2024-02-21T14:10:00;11.60;;;6.60;;
22774;SDS011;11554;51.106;3.684;2024-02-21T14:15:00;11.60;;;6.60;;
22774;SDS011;11554;51.106;3.684;2024-02-21T14:20:00;11.90;;;5.50;;
22774;SDS011;11554;51.106;3.684;2024-02-21T14:25:00;11.90;;;5.50;;
22774;SDS011;11554;51.106;3.684;2024-02-21T14:30:00;12.50;;;5.70;;
22774;SDS011;11554;51.106;3.684;2024-02-21T14:35:00;12.50;;;5.70;;
22774;SDS011;11554;51.106;3.684;2024-02-21T14:40:00;10.30;;;6.10;;
22774;SDS011;11554;51.106;3.684;2024-02-21T14:45:00;10.30;;;6.10;;
22774;SDS011;11554;51.106;3.684;2024-02-21T14:50:02;9.70;;;6.20;;
22774;SDS011;11554;51.106;3.684;2024-02-21T14:55:00;9.70;;;6.20;;
22774;SDS011;11554;51.106;3.684;2024-02-21T15:00:00;9.90;;;5.60;;
22774;SDS011;11554;51.106;3.684;2024-02-21T15:05:00;9.90;;;5.60;;
22774;SDS011;11554;51.106;3.684;2024-02-21T15:10:01;7.90;;;4.70;;
22774;SDS011;11554;51.106;3.684;2024-02-21T15:15:00;7.90;;;4.70;;
22774;SDS011;11554;51.106;3.684;2024-02-21T15:20:00;9.80;;;5.10;;
22774;SDS011;11554;51.106;3.684;2024-02-21T15:25:00;9.80;;;5.10;;
22774;SDS011;11554;51.106;3.684;2024-02-21T15:30:01;8.30;;;5.30;;
22774;SDS011;11554;51.106;3.684;2024-02-21T15:35:00;8.30;;;5.30;;
22774;SDS011;11554;51.106;3.684;2024-02-21T15:40:01;8.80;;;5.50;;
22774;SDS011;11554;51.106;3.684;2024-02-21T15:45:00;8.80;;;5.50;;
22774;SDS011;11554;51.106;3.684;2024-02-21T15:50:00;10.20;;;6.10;;
22774;SDS011;11554;51.106;3.684;2024-02-21T15:55:00;10.20;;;6.10;;
22774;SDS011;11554;51.106;3.684;2024-02-21T16:00:00;9.60;;;5.50;;
22774;SDS011;11554;51.106;3.684;2024-02-21T16:05:00;9.60;;;5.50;;
22774;SDS011;11554;51.106;3.684;2024-02-21T16:10:00;10.10;;;5.90;;
22774;SDS011;11554;51.106;3.684;2024-02-21T16:15:00;10.10;;;5.90;;
22774;SDS011;11554;51.106;3.684;2024-02-21T16:20:01;11.00;;;5.50;;
22774;SDS011;11554;51.106;3.684;2024-02-21T16:25:00;11.00;;;5.50;;
22774;SDS011;11554;51.106;3.684;2024-02-21T16:30:00;7.50;;;5.60;;
22774;SDS011;11554;51.106;3.684;2024-02-21T16:35:00;7.50;;;5.60;;
22774;SDS011;11554;51.106;3.684;2024-02-21T16:40:00;10.40;;;5.50;;
22774;SDS011;11554;51.106;3.684;2024-02-21T16:45:00;10.40;;;5.50;;
22774;SDS011;11554;51.106;3.684;2024-02-21T16:50:00;7.90;;;5.60;;
22774;SDS011;11554;51.106;3.684;2024-02-21T16:55:00;7.90;;;5.60;;
22774;SDS011;11554;51.106;3.684;2024-02-21T17:00:00;8.30;;;5.30;;
22774;SDS011;11554;51.106;3.684;2024-02-21T17:05:00;8.30;;;5.30;;
22774;SDS011;11554;51.106;3.684;2024-02-21T17:10:00;10.20;;;5.40;;
22774;SDS011;11554;51.106;3.684;2024-02-21T17:15:00;10.20;;;5.40;;
22774;SDS011;11554;51.106;3.684;2024-02-21T17:20:00;9.50;;;5.60;;
22774;SDS011;11554;51.106;3.684;2024-02-21T17:25:00;9.50;;;5.60;;
22774;SDS011;11554;51.106;3.684;2024-02-21T17:30:00;8.20;;;5.10;;
22774;SDS011;11554;51.106;3.684;2024-02-21T17:35:00;8.20;;;5.10;;
22774;SDS011;11554;51.106;3.684;2024-02-21T17:40:00;7.80;;;4.70;;
22774;SDS011;11554;51.106;3.684;2024-02-21T17:45:00;7.80;;;4.70;;
22774;SDS011;11554;51.106;3.684;2024-02-21T17:50:00;6.80;;;4.70;;
22774;SDS011;11554;51.106;3.684;2024-02-21T17:55:00;6.80;;;4.70;;
22774;SDS011;11554;51.106;3.684;2024-02-21T18:00:00;7.70;;;4.70;;
22774;SDS011;11554;51.106;3.684;2024-02-21T18:05:00;7.70;;;4.70;;
22774;SDS011;11554;51.106;3.684;2024-02-21T18:10:00;6.50;;;5.10;;
22774;SDS011;11554;51.106;3.684;2024-02-21T18:15:00;6.50;;;5.10;;
22774;SDS011;11554;51.106;3.684;2024-02-21T18:20:00;7.60;;;4.50;;
22774;SDS011;11554;51.106;3.684;2024-02-21T18:25:00;7.60;;;4.50;;
22774;SDS011;11554;51.106;3.684;2024-02-21T18:30:00;5.50;;;3.60;;
22774;SDS011;11554;51.106;3.684;2024-02-21T18:35:00;5.50;;;3.60;;
22774;SDS011;11554;51.106;3.684;2024-02-21T18:40:00;6.70;;;4.30;;
22774;SDS011;11554;51.106;3.684;2024-02-21T18:45:00;6.70;;;4.30;;
22774;SDS011;11554;51.106;3.684;2024-02-21T18:50:00;7.40;;;4.60;;
22774;SDS011;11554;51.106;3.684;2024-02-21T18:55:00;7.40;;;4.60;;
22774;SDS011;11554;51.106;3.684;2024-02-21T19:00:00;13.50;;;7.70;;
22774;SDS011;11554;51.106;3.684;2024-02-21T19:05:00;13.50;;;7.70;;
22774;SDS011;11554;51.106;3.684;2024-02-21T19:10:00;6.60;;;3.60;;
22774;SDS011;11554;51.106;3.684;2024-02-21T19:15:00;6.60;;;3.60;;
22774;SDS011;11554;51.106;3.684;2024-02-21T19:20:00;5.50;;;4.40;;
22774;SDS011;11554;51.106;3.684;2024-02-21T19:25:00;5.50;;;4.40;;
22774;SDS011;11554;51.106;3.684;2024-02-21T19:30:00;6.00;;;3.70;;
22774;SDS011;11554;51.106;3.684;2024-02-21T19:35:00;6.00;;;3.70;;
22774;SDS011;11554;51.106;3.684;2024-02-21T19:40:00;4.40;;;2.90;;
22774;SDS011;11554;51.106;3.684;2024-02-21T19:45:00;4.40;;;2.90;;
22774;SDS011;11554;51.106;3.684;2024-02-21T19:50:00;4.80;;;3.70;;
22774;SDS011;11554;51.106;3.684;2024-02-21T19:55:00;4.80;;;3.70;;
22774;SDS011;11554;51.106;3.684;2024-02-21T20:00:00;3.50;;;2.70;;
22774;SDS011;11554;51.106;3.684;2024-02-21T20:05:00;3.50;;;2.70;;
22774;SDS011;11554;51.106;3.684;2024-02-21T20:10:00;5.10;;;4.00;;
22774;SDS011;11554;51.106;3.684;2024-02-21T20:15:00;5.10;;;4.00;;
22774;SDS011;11554;51.106;3.684;2024-02-21T20:20:00;6.80;;;4.30;;
22774;SDS011;11554;51.106;3.684;2024-02-21T20:25:00;6.80;;;4.30;;
22774;SDS011;11554;51.106;3.684;2024-02-21T20:30:00;4.60;;;4.10;;
22774;SDS011;11554;51.106;3.684;2024-02-21T20:35:00;4.60;;;4.10;;
22774;SDS011;11554;51.106;3.684;2024-02-21T20:40:00;5.90;;;3.90;;
22774;SDS011;11554;51.106;3.684;2024-02-21T20:45:00;5.90;;;3.90;;
22774;SDS011;11554;51.106;3.684;2024-02-21T20:50:00;5.30;;;4.00;;
22774;SDS011;11554;51.106;3.684;2024-02-21T20:55:00;5.30;;;4.00;;
22774;SDS011;11554;51.106;3.684;2024-02-21T21:00:00;5.70;;;4.40;;
22774;SDS011;11554;51.106;3.684;2024-02-21T21:05:00;5.70;;;4.40;;
22774;SDS011;11554;51.106;3.684;2024-02-21T21:10:00;6.10;;;4.10;;
22774;SDS011;11554;51.106;3.684;2024-02-21T21:15:00;6.10;;;4.10;;
22774;SDS011;11554;51.106;3.684;2024-02-21T21:20:00;5.50;;;4.10;;
22774;SDS011;11554;51.106;3.684;2024-02-21T21:25:00;5.50;;;4.10;;
22774;SDS011;11554;51.106;3.684;2024-02-21T21:30:00;6.20;;;3.90;;
22774;SDS011;11554;51.106;3.684;2024-02-21T21:35:00;6.20;;;3.90;;
22774;SDS011;11554;51.106;3.684;2024-02-21T21:40:00;4.50;;;3.60;;
22774;SDS011;11554;51.106;3.684;2024-02-21T21:45:00;4.50;;;3.60;;
22774;SDS011;11554;51.106;3.684;2024-02-21T21:50:00;5.40;;;3.90;;
22774;SDS011;11554;51.106;3.684;2024-02-21T21:55:00;5.40;;;3.90;;
22774;SDS011;11554;51.106;3.684;2024-02-21T22:00:00;5.10;;;4.10;;
22774;SDS011;11554;51.106;3.684;2024-02-21T22:05:00;5.10;;;4.10;;
22774;SDS011;11554;51.106;3.684;2024-02-21T22:10:00;5.00;;;2.80;;
22774;SDS011;11554;51.106;3.684;2024-02-21T22:15:00;5.00;;;2.80;;
22774;SDS011;11554;51.106;3.684;2024-02-21T22:20:00;5.70;;;4.50;;
22774;SDS011;11554;51.106;3.684;2024-02-21T22:25:00;5.70;;;4.50;;
22774;SDS011;11554;51.106;3.684;2024-02-21T22:30:00;4.80;;;4.10;;
22774;SDS011;11554;51.106;3.684;2024-02-21T22:35:00;4.80;;;4.10;;
22774;SDS011;11554;51.106;3.684;2024-02-21T22:40:00;4.90;;;3.70;;
22774;SDS011;11554;51.106;3.684;2024-02-21T22:45:00;4.90;;;3.70;;
22774;SDS011;11554;51.106;3.684;2024-02-21T22:50:00;4.60;;;4.10;;
22774;SDS011;11554;51.106;3.684;2024-02-21T22:55:00;4.60;;;4.10;;
22774;SDS011;11554;51.106;3.684;2024-02-21T23:00:00;5.50;;;4.30;;
22774;SDS011;11554;51.106;3.684;2024-02-21T23:05:00;5.50;;;4.30;;
22774;SDS011;11554;51.106;3.684;2024-02-21T23:10:00;5.10;;;4.30;;
22774;SDS011;11554;51.106;3.684;2024-02-21T23:15:00;5.10;;;4.30;;
22774;SDS011;11554;51.106;3.684;2024-02-21T23:20:00;4.70;;;4.20;;
22774;SDS011;11554;51.106;3.684;2024-02-21T23:25:00;4.70;;;4.20;;
22774;SDS011;11554;51.106;3.684;2024-02-21T23:30:00;5.50;;;4.80;;
22774;SDS011;11554;51.106;3.684;2024-02-21T23:35:00;5.50;;;4.80;;
22774;SDS011;11554;51.106;3.684;2024-02-21T23:40:00;8.40;;;4.50;;
22774;SDS011;11554;51.106;3.684;2024-02-21T23:45:00;8.40;;;4.50;;
22774;SDS011;11554;51.106;3.684;2024-02-21T23:50:00;5.90;;;4.80;;
22774;SDS011;11554;51.106;3.684;2024-02-21T23:55:00;5.90;;;4.80;;
